ITY72M EHAM-LIRP
Flight info
| Callsign | ITY72M |
|---|---|
| Flight time | 1h 50m |
| Altitude | 35000 |
| Route | IVLUT4W EDUPO Z739 MISGO DCT ASBON DCT TUSUK DCT ULNOK L607 ABUKA/N0456F360 DCT KRH DCT NATOR/N0456F350 DCT TRA DCT RIPUS DCT GERSA DCT SOSON DCT ODINA DCT SRN DCT ROBAS DCT OSBUL DCT EKPAL DCT MIVKI MIVKI1G |
| Aircraft | A320/M-SDE3FGHIRWY/LB1 |
Departure
| Time | 2026-05-08 17:55 |
|---|---|
| Airport | Amsterdam Airport Schiphol (EHAM) |
Arrival
| Time | 2026-05-08 19:46 |
|---|---|
| Airport | Pisa International Airport (LIRP) |
| Time | Latitude | Longitude | Altitude | Speed | Heading |
|---|---|---|---|---|---|
| 2026-05-08 17:18 | 52.30787 | 4.77165 | -1 ft | 0 kts | 183° |
| 2026-05-08 17:38 | 52.30810 | 4.77165 | -1 ft | 4 kts | 170° |
| 2026-05-08 17:38 | 52.30834 | 4.77152 | -1 ft | 4 kts | 139° |
| 2026-05-08 17:39 | 52.30847 | 4.77121 | -1 ft | 2 kts | 94° |
| 2026-05-08 17:39 | 52.30847 | 4.77119 | -1 ft | 0 kts | 94° |
| 2026-05-08 17:43 | 52.30847 | 4.77125 | -1 ft | 4 kts | 94° |
| 2026-05-08 17:44 | 52.30842 | 4.77236 | -1 ft | 13 kts | 94° |
| 2026-05-08 17:44 | 52.30837 | 4.77360 | -1 ft | 7 kts | 92° |
| 2026-05-08 17:44 | 52.30835 | 4.77429 | -1 ft | 12 kts | 93° |
| 2026-05-08 17:44 | 52.30790 | 4.77593 | -1 ft | 17 kts | 183° |
| 2026-05-08 17:45 | 52.30652 | 4.77584 | -1 ft | 21 kts | 184° |
| 2026-05-08 17:45 | 52.30582 | 4.77517 | -1 ft | 16 kts | 227° |
| 2026-05-08 17:45 | 52.30524 | 4.77373 | -1 ft | 14 kts | 238° |
| 2026-05-08 17:45 | 52.30455 | 4.77194 | -1 ft | 18 kts | 238° |
| 2026-05-08 17:46 | 52.30404 | 4.77060 | -1 ft | 21 kts | 238° |
| 2026-05-08 17:46 | 52.30322 | 4.76849 | -1 ft | 22 kts | 238° |
| 2026-05-08 17:46 | 52.30341 | 4.76694 | -1 ft | 14 kts | 295° |
| 2026-05-08 17:46 | 52.30316 | 4.76579 | -1 ft | 10 kts | 242° |
| 2026-05-08 17:47 | 52.30249 | 4.76403 | -1 ft | 29 kts | 237° |
| 2026-05-08 17:47 | 52.30162 | 4.76176 | -1 ft | 25 kts | 237° |
| 2026-05-08 17:47 | 52.30085 | 4.75976 | -1 ft | 21 kts | 238° |
| 2026-05-08 17:47 | 52.30006 | 4.75771 | -1 ft | 21 kts | 239° |
| 2026-05-08 17:48 | 52.29929 | 4.75569 | -1 ft | 21 kts | 238° |
| 2026-05-08 17:48 | 52.29858 | 4.75383 | -1 ft | 17 kts | 238° |
| 2026-05-08 17:48 | 52.29840 | 4.75209 | -1 ft | 14 kts | 292° |
| 2026-05-08 17:48 | 52.29897 | 4.75094 | -1 ft | 13 kts | 311° |
| 2026-05-08 17:49 | 52.29976 | 4.74946 | -1 ft | 20 kts | 311° |
| 2026-05-08 17:49 | 52.30072 | 4.74769 | 1 ft | 24 kts | 312° |
| 2026-05-08 17:49 | 52.30185 | 4.74560 | 10 ft | 24 kts | 311° |
| 2026-05-08 17:49 | 52.30279 | 4.74386 | 11 ft | 19 kts | 311° |
| 2026-05-08 17:50 | 52.30367 | 4.74214 | -1 ft | 14 kts | 300° |
| 2026-05-08 17:50 | 52.30347 | 4.74071 | -1 ft | 13 kts | 234° |
| 2026-05-08 17:50 | 52.30283 | 4.73990 | -1 ft | 11 kts | 213° |
| 2026-05-08 17:50 | 52.30229 | 4.73924 | -1 ft | 6 kts | 218° |
| 2026-05-08 17:51 | 52.30217 | 4.73909 | -1 ft | 0 kts | 216° |
| 2026-05-08 17:51 | 52.30191 | 4.73809 | -2 ft | 14 kts | 285° |
| 2026-05-08 17:52 | 52.30250 | 4.73742 | -4 ft | 9 kts | 2° |
| 2026-05-08 17:52 | 52.30278 | 4.73745 | -4 ft | 0 kts | 3° |
| 2026-05-08 17:54 | 52.30287 | 4.73746 | -4 ft | 8 kts | 3° |
| 2026-05-08 17:55 | 52.30594 | 4.73776 | -3 ft | 80 kts | 4° |
| 2026-05-08 17:55 | 52.31354 | 4.73846 | -2 ft | 137 kts | 4° |
| 2026-05-08 17:55 | 52.32456 | 4.73935 | 86 ft | 173 kts | 4° |
| 2026-05-08 17:55 | 52.33654 | 4.74127 | 678 ft | 173 kts | 15° |
| 2026-05-08 17:56 | 52.34770 | 4.74866 | 1352 ft | 175 kts | 25° |
| 2026-05-08 17:56 | 52.35957 | 4.75689 | 1693 ft | 196 kts | 23° |
| 2026-05-08 17:56 | 52.37284 | 4.76592 | 2023 ft | 217 kts | 26° |
| 2026-05-08 17:56 | 52.38554 | 4.78133 | 2365 ft | 240 kts | 46° |
| 2026-05-08 17:57 | 52.39751 | 4.80159 | 2961 ft | 253 kts | 49° |
| 2026-05-08 17:57 | 52.40675 | 4.82616 | 3765 ft | 258 kts | 72° |
| 2026-05-08 17:57 | 52.40840 | 4.85540 | 4572 ft | 262 kts | 99° |
| 2026-05-08 17:57 | 52.40193 | 4.88349 | 5363 ft | 267 kts | 118° |
| 2026-05-08 17:58 | 52.39321 | 4.91060 | 6162 ft | 272 kts | 118° |
| 2026-05-08 17:58 | 52.38428 | 4.93822 | 6940 ft | 277 kts | 119° |
| 2026-05-08 17:58 | 52.37513 | 4.96646 | 7743 ft | 279 kts | 118° |
| 2026-05-08 17:58 | 52.36611 | 4.99436 | 8588 ft | 281 kts | 118° |
| 2026-05-08 17:59 | 52.35695 | 5.02280 | 9386 ft | 284 kts | 118° |
| 2026-05-08 17:59 | 52.34770 | 5.05162 | 10142 ft | 288 kts | 118° |
| 2026-05-08 17:59 | 52.33795 | 5.08107 | 10547 ft | 305 kts | 122° |
| 2026-05-08 17:59 | 52.32516 | 5.11022 | 10731 ft | 327 kts | 129° |
| 2026-05-08 18:00 | 52.31047 | 5.14041 | 10850 ft | 350 kts | 129° |
| 2026-05-08 18:00 | 52.27916 | 5.20470 | 11716 ft | 371 kts | 129° |
| 2026-05-08 18:00 | 52.26282 | 5.23831 | 12343 ft | 375 kts | 129° |
| 2026-05-08 18:01 | 52.24672 | 5.27137 | 12956 ft | 379 kts | 130° |
| 2026-05-08 18:01 | 52.23010 | 5.30536 | 13602 ft | 383 kts | 129° |
| 2026-05-08 18:01 | 52.21336 | 5.33941 | 14207 ft | 387 kts | 129° |
| 2026-05-08 18:01 | 52.19645 | 5.37372 | 14782 ft | 390 kts | 129° |
| 2026-05-08 18:02 | 52.17939 | 5.40837 | 15364 ft | 393 kts | 130° |
| 2026-05-08 18:02 | 52.16804 | 5.43147 | 15737 ft | 395 kts | 129° |
| 2026-05-08 18:02 | 52.14495 | 5.47846 | 16479 ft | 399 kts | 129° |
| 2026-05-08 18:02 | 52.12754 | 5.51386 | 17074 ft | 401 kts | 129° |
| 2026-05-08 18:03 | 52.11004 | 5.54943 | 17642 ft | 404 kts | 129° |
| 2026-05-08 18:03 | 52.09239 | 5.58515 | 18199 ft | 407 kts | 130° |
| 2026-05-08 18:03 | 52.07431 | 5.62163 | 18701 ft | 410 kts | 130° |
| 2026-05-08 18:03 | 52.05636 | 5.65788 | 19157 ft | 413 kts | 130° |
| 2026-05-08 18:04 | 52.03827 | 5.69440 | 19586 ft | 416 kts | 129° |
| 2026-05-08 18:04 | 52.02002 | 5.73117 | 20020 ft | 420 kts | 130° |
| 2026-05-08 18:04 | 52.00160 | 5.76817 | 20451 ft | 423 kts | 130° |
| 2026-05-08 18:04 | 51.98304 | 5.80534 | 20865 ft | 426 kts | 130° |
| 2026-05-08 18:05 | 51.96431 | 5.84279 | 21269 ft | 429 kts | 130° |
| 2026-05-08 18:05 | 51.94568 | 5.87999 | 21643 ft | 432 kts | 130° |
| 2026-05-08 18:05 | 51.92669 | 5.91784 | 22017 ft | 435 kts | 130° |
| 2026-05-08 18:05 | 51.90751 | 5.95603 | 22381 ft | 438 kts | 130° |
| 2026-05-08 18:06 | 51.88823 | 5.99435 | 22753 ft | 440 kts | 130° |
| 2026-05-08 18:06 | 51.86881 | 6.03299 | 23131 ft | 443 kts | 130° |
| 2026-05-08 18:06 | 51.84940 | 6.07141 | 23473 ft | 445 kts | 130° |
| 2026-05-08 18:06 | 51.82928 | 6.10974 | 23793 ft | 448 kts | 131° |
| 2026-05-08 18:07 | 51.80871 | 6.14755 | 24080 ft | 450 kts | 132° |
| 2026-05-08 18:07 | 51.78767 | 6.18543 | 24369 ft | 452 kts | 133° |
| 2026-05-08 18:07 | 51.76661 | 6.22316 | 24651 ft | 454 kts | 133° |
| 2026-05-08 18:07 | 51.74547 | 6.26118 | 24951 ft | 455 kts | 132° |
| 2026-05-08 18:08 | 51.72444 | 6.29927 | 25085 ft | 456 kts | 132° |
| 2026-05-08 18:08 | 51.70340 | 6.33759 | 25114 ft | 455 kts | 132° |
| 2026-05-08 18:08 | 51.68242 | 6.37581 | 25122 ft | 455 kts | 132° |
| 2026-05-08 18:08 | 51.66134 | 6.41404 | 25383 ft | 457 kts | 132° |
| 2026-05-08 18:09 | 51.64014 | 6.45242 | 25666 ft | 459 kts | 132° |
| 2026-05-08 18:09 | 51.61889 | 6.49086 | 25939 ft | 460 kts | 132° |
| 2026-05-08 18:09 | 51.59767 | 6.52927 | 26216 ft | 461 kts | 132° |
| 2026-05-08 18:09 | 51.57632 | 6.56789 | 26461 ft | 462 kts | 132° |
| 2026-05-08 18:10 | 51.55486 | 6.60664 | 26711 ft | 464 kts | 132° |
| 2026-05-08 18:10 | 51.53338 | 6.64541 | 26938 ft | 465 kts | 132° |
| 2026-05-08 18:10 | 51.51182 | 6.68424 | 27159 ft | 467 kts | 132° |
| 2026-05-08 18:10 | 51.49015 | 6.72317 | 27379 ft | 468 kts | 132° |
| 2026-05-08 18:11 | 51.46880 | 6.76143 | 28381 ft | 450 kts | 132° |
| 2026-05-08 18:11 | 51.44895 | 6.79695 | 29697 ft | 428 kts | 132° |
| 2026-05-08 18:11 | 51.42930 | 6.83207 | 30542 ft | 418 kts | 132° |
| 2026-05-08 18:11 | 51.40907 | 6.86519 | 31018 ft | 415 kts | 139° |
| 2026-05-08 18:12 | 51.38661 | 6.89383 | 31402 ft | 413 kts | 146° |
| 2026-05-08 18:12 | 51.36246 | 6.91860 | 31760 ft | 412 kts | 149° |
| 2026-05-08 18:12 | 51.33821 | 6.94291 | 32131 ft | 411 kts | 149° |
| 2026-05-08 18:12 | 51.31396 | 6.96723 | 32471 ft | 411 kts | 149° |
| 2026-05-08 18:13 | 51.28970 | 6.99159 | 32748 ft | 413 kts | 149° |
| 2026-05-08 18:13 | 51.26518 | 7.01622 | 32881 ft | 418 kts | 149° |
| 2026-05-08 18:13 | 51.24042 | 7.04110 | 33018 ft | 423 kts | 149° |
| 2026-05-08 18:13 | 51.21542 | 7.06615 | 33150 ft | 428 kts | 149° |
| 2026-05-08 18:14 | 51.18910 | 7.08857 | 33308 ft | 431 kts | 156° |
| 2026-05-08 18:14 | 51.16166 | 7.10845 | 33435 ft | 435 kts | 157° |
| 2026-05-08 18:14 | 51.13392 | 7.12837 | 33553 ft | 439 kts | 157° |
| 2026-05-08 18:14 | 51.10590 | 7.14836 | 33710 ft | 443 kts | 157° |
| 2026-05-08 18:15 | 51.07770 | 7.16839 | 33837 ft | 446 kts | 157° |
| 2026-05-08 18:15 | 51.04926 | 7.18856 | 33986 ft | 449 kts | 157° |
| 2026-05-08 18:15 | 51.02101 | 7.20860 | 34117 ft | 452 kts | 157° |
| 2026-05-08 18:15 | 50.99224 | 7.22899 | 34243 ft | 454 kts | 158° |
| 2026-05-08 18:16 | 50.96335 | 7.24941 | 34411 ft | 455 kts | 158° |
| 2026-05-08 18:16 | 50.93443 | 7.26986 | 34590 ft | 455 kts | 158° |
| 2026-05-08 18:16 | 50.90549 | 7.29031 | 34783 ft | 456 kts | 158° |
| 2026-05-08 18:16 | 50.87659 | 7.31067 | 34964 ft | 456 kts | 158° |
| 2026-05-08 18:17 | 50.84753 | 7.33117 | 35083 ft | 457 kts | 158° |
| 2026-05-08 18:17 | 50.81838 | 7.35173 | 35111 ft | 460 kts | 158° |
| 2026-05-08 18:17 | 50.75980 | 7.39299 | 35115 ft | 461 kts | 158° |
| 2026-05-08 18:18 | 50.70117 | 7.43408 | 35113 ft | 461 kts | 158° |
| 2026-05-08 18:18 | 50.64250 | 7.47508 | 35117 ft | 461 kts | 158° |
| 2026-05-08 18:19 | 50.58349 | 7.51399 | 35110 ft | 458 kts | 167° |
| 2026-05-08 18:19 | 50.52150 | 7.53569 | 35109 ft | 456 kts | 170° |
| 2026-05-08 18:20 | 50.45935 | 7.55649 | 35112 ft | 457 kts | 170° |
| 2026-05-08 18:20 | 50.39714 | 7.57721 | 35097 ft | 457 kts | 170° |
| 2026-05-08 18:21 | 50.33492 | 7.59793 | 35106 ft | 457 kts | 170° |
| 2026-05-08 18:21 | 50.27282 | 7.61881 | 35105 ft | 457 kts | 170° |
| 2026-05-08 18:22 | 50.21106 | 7.63954 | 35106 ft | 457 kts | 170° |
| 2026-05-08 18:22 | 50.14899 | 7.66024 | 35099 ft | 457 kts | 170° |
| 2026-05-08 18:23 | 50.08686 | 7.68081 | 35107 ft | 456 kts | 170° |
| 2026-05-08 18:23 | 50.02467 | 7.70133 | 35105 ft | 457 kts | 170° |
| 2026-05-08 18:24 | 49.97305 | 7.71840 | 35103 ft | 457 kts | 170° |
| 2026-05-08 18:24 | 49.91090 | 7.73884 | 35096 ft | 456 kts | 171° |
| 2026-05-08 18:25 | 49.84879 | 7.75923 | 35094 ft | 456 kts | 170° |
| 2026-05-08 18:25 | 49.78664 | 7.77957 | 35093 ft | 456 kts | 171° |
| 2026-05-08 18:26 | 49.72446 | 7.79983 | 35095 ft | 456 kts | 170° |
| 2026-05-08 18:26 | 49.66231 | 7.82014 | 35079 ft | 456 kts | 171° |
| 2026-05-08 18:27 | 49.61076 | 7.83702 | 35072 ft | 456 kts | 171° |
| 2026-05-08 18:27 | 49.53815 | 7.86068 | 35070 ft | 456 kts | 171° |
| 2026-05-08 18:28 | 49.47607 | 7.88061 | 35057 ft | 455 kts | 171° |
| 2026-05-08 18:28 | 49.41441 | 7.90045 | 35057 ft | 456 kts | 171° |
| 2026-05-08 18:29 | 49.35185 | 7.92058 | 35058 ft | 456 kts | 171° |
| 2026-05-08 18:29 | 49.29009 | 7.94040 | 35059 ft | 456 kts | 171° |
| 2026-05-08 18:30 | 49.22788 | 7.96029 | 35055 ft | 457 kts | 171° |
| 2026-05-08 18:30 | 49.16553 | 7.98012 | 35064 ft | 458 kts | 171° |
| 2026-05-08 18:31 | 49.10312 | 8.00003 | 35057 ft | 458 kts | 171° |
| 2026-05-08 18:31 | 49.04071 | 8.01989 | 35062 ft | 458 kts | 171° |
| 2026-05-08 18:32 | 48.97825 | 8.03969 | 35056 ft | 458 kts | 172° |
| 2026-05-08 18:32 | 48.91620 | 8.05923 | 35058 ft | 458 kts | 172° |
| 2026-05-08 18:33 | 48.85384 | 8.07892 | 35060 ft | 458 kts | 172° |
| 2026-05-08 18:33 | 48.79133 | 8.09861 | 35045 ft | 458 kts | 172° |
| 2026-05-08 18:34 | 48.72896 | 8.11816 | 35044 ft | 458 kts | 172° |
| 2026-05-08 18:34 | 48.66646 | 8.13775 | 35045 ft | 458 kts | 172° |
| 2026-05-08 18:35 | 48.60382 | 8.15728 | 35041 ft | 459 kts | 172° |
| 2026-05-08 18:35 | 48.54121 | 8.17672 | 35049 ft | 459 kts | 172° |
| 2026-05-08 18:36 | 48.47892 | 8.19599 | 35039 ft | 459 kts | 172° |
| 2026-05-08 18:36 | 48.41630 | 8.21543 | 35040 ft | 459 kts | 172° |
| 2026-05-08 18:37 | 48.35375 | 8.23482 | 35020 ft | 459 kts | 173° |
| 2026-05-08 18:37 | 48.29104 | 8.25411 | 35021 ft | 460 kts | 173° |
| 2026-05-08 18:38 | 48.22832 | 8.27335 | 35025 ft | 460 kts | 173° |
| 2026-05-08 18:38 | 48.16439 | 8.29290 | 35026 ft | 460 kts | 173° |
| 2026-05-08 18:39 | 48.10263 | 8.31180 | 35010 ft | 461 kts | 173° |
| 2026-05-08 18:39 | 48.03958 | 8.33109 | 35013 ft | 463 kts | 173° |
| 2026-05-08 18:40 | 47.97690 | 8.35015 | 35020 ft | 463 kts | 173° |
| 2026-05-08 18:40 | 47.91372 | 8.36946 | 34996 ft | 464 kts | 173° |
| 2026-05-08 18:41 | 47.85039 | 8.38859 | 35005 ft | 465 kts | 174° |
| 2026-05-08 18:41 | 47.78686 | 8.40777 | 35007 ft | 466 kts | 174° |
| 2026-05-08 18:42 | 47.72320 | 8.42692 | 35014 ft | 467 kts | 174° |
| 2026-05-08 18:42 | 47.65936 | 8.44149 | 34996 ft | 462 kts | 180° |
| 2026-05-08 18:43 | 47.59526 | 8.45089 | 35009 ft | 463 kts | 180° |
| 2026-05-08 18:43 | 47.53115 | 8.46020 | 35006 ft | 463 kts | 180° |
| 2026-05-08 18:44 | 47.46691 | 8.46956 | 35000 ft | 464 kts | 180° |
| 2026-05-08 18:44 | 47.40263 | 8.47907 | 35008 ft | 464 kts | 180° |
| 2026-05-08 18:45 | 47.33827 | 8.48857 | 35011 ft | 465 kts | 180° |
| 2026-05-08 18:45 | 47.27380 | 8.49791 | 34994 ft | 465 kts | 180° |
| 2026-05-08 18:46 | 47.20937 | 8.50721 | 35006 ft | 466 kts | 180° |
| 2026-05-08 18:46 | 47.14480 | 8.51669 | 35016 ft | 466 kts | 180° |
| 2026-05-08 18:47 | 47.08031 | 8.52613 | 35022 ft | 466 kts | 180° |
| 2026-05-08 18:47 | 47.01568 | 8.53552 | 35011 ft | 466 kts | 180° |
| 2026-05-08 18:48 | 46.95153 | 8.54483 | 35033 ft | 467 kts | 180° |
| 2026-05-08 18:48 | 46.88684 | 8.55410 | 35049 ft | 467 kts | 180° |
| 2026-05-08 18:49 | 46.82229 | 8.56333 | 35037 ft | 466 kts | 180° |
| 2026-05-08 18:49 | 46.75769 | 8.57263 | 35053 ft | 467 kts | 180° |
| 2026-05-08 18:50 | 46.69292 | 8.58187 | 35055 ft | 468 kts | 180° |
| 2026-05-08 18:50 | 46.62819 | 8.59113 | 35034 ft | 467 kts | 180° |
| 2026-05-08 18:51 | 46.56350 | 8.60041 | 35062 ft | 467 kts | 180° |
| 2026-05-08 18:51 | 46.49878 | 8.60949 | 35068 ft | 467 kts | 180° |
| 2026-05-08 18:52 | 46.43413 | 8.61855 | 35060 ft | 467 kts | 180° |
| 2026-05-08 18:52 | 46.36947 | 8.62762 | 35062 ft | 467 kts | 180° |
| 2026-05-08 18:53 | 46.30471 | 8.63680 | 35060 ft | 466 kts | 180° |
| 2026-05-08 18:53 | 46.24015 | 8.64590 | 35029 ft | 466 kts | 180° |
| 2026-05-08 18:54 | 46.17558 | 8.65492 | 35037 ft | 466 kts | 180° |
| 2026-05-08 18:54 | 46.11111 | 8.66855 | 35039 ft | 475 kts | 169° |
| 2026-05-08 18:55 | 46.05040 | 8.70721 | 35071 ft | 485 kts | 156° |
| 2026-05-08 18:55 | 46.02083 | 8.73060 | 35046 ft | 485 kts | 156° |
| 2026-05-08 18:56 | 45.96149 | 8.77704 | 35062 ft | 486 kts | 156° |
| 2026-05-08 18:56 | 45.90200 | 8.82318 | 35069 ft | 486 kts | 157° |
| 2026-05-08 18:57 | 45.84241 | 8.86934 | 35071 ft | 486 kts | 156° |
| 2026-05-08 18:57 | 45.78298 | 8.91558 | 35054 ft | 486 kts | 156° |
| 2026-05-08 18:58 | 45.72360 | 8.96169 | 35069 ft | 486 kts | 156° |
| 2026-05-08 18:58 | 45.66452 | 9.00860 | 35060 ft | 489 kts | 151° |
| 2026-05-08 18:59 | 45.61299 | 9.07322 | 35066 ft | 498 kts | 135° |
| 2026-05-08 18:59 | 45.56649 | 9.14654 | 35047 ft | 498 kts | 135° |
| 2026-05-08 19:00 | 45.52778 | 9.20739 | 35055 ft | 498 kts | 136° |
| 2026-05-08 19:00 | 45.47352 | 9.29227 | 35064 ft | 498 kts | 136° |
| 2026-05-08 19:01 | 45.42676 | 9.36507 | 35071 ft | 498 kts | 136° |
| 2026-05-08 19:01 | 45.37997 | 9.43786 | 35038 ft | 498 kts | 136° |
| 2026-05-08 19:02 | 45.33320 | 9.51052 | 35048 ft | 498 kts | 136° |
| 2026-05-08 19:02 | 45.28640 | 9.58306 | 35051 ft | 497 kts | 136° |
| 2026-05-08 19:03 | 45.23984 | 9.65496 | 35049 ft | 497 kts | 136° |
| 2026-05-08 19:03 | 45.19288 | 9.72712 | 35040 ft | 498 kts | 136° |
| 2026-05-08 19:04 | 45.14598 | 9.79925 | 35013 ft | 498 kts | 136° |
| 2026-05-08 19:04 | 45.10044 | 9.86935 | 35042 ft | 497 kts | 136° |
| 2026-05-08 19:05 | 45.05724 | 9.93566 | 35052 ft | 497 kts | 136° |
| 2026-05-08 19:05 | 45.01439 | 10.00135 | 35058 ft | 497 kts | 136° |
| 2026-05-08 19:06 | 44.96851 | 10.07125 | 35043 ft | 497 kts | 136° |
| 2026-05-08 19:06 | 44.92860 | 10.13202 | 35023 ft | 498 kts | 137° |
| 2026-05-08 19:07 | 44.88044 | 10.20104 | 35028 ft | 491 kts | 146° |
| 2026-05-08 19:07 | 44.82315 | 10.24658 | 35030 ft | 474 kts | 167° |
| 2026-05-08 19:07 | 44.79170 | 10.25771 | 35028 ft | 464 kts | 178° |
| 2026-05-08 19:08 | 44.77643 | 10.26018 | 35028 ft | 459 kts | 182° |
| 2026-05-08 19:08 | 44.74767 | 10.25064 | 35087 ft | 405 kts | 217° |
| 2026-05-08 19:08 | 44.72358 | 10.23249 | 36037 ft | 390 kts | 202° |
| 2026-05-08 19:08 | 44.70615 | 10.22622 | 36351 ft | 395 kts | 197° |
| 2026-05-08 19:09 | 44.67816 | 10.22100 | 35846 ft | 419 kts | 191° |
| 2026-05-08 19:09 | 44.64833 | 10.21716 | 35365 ft | 436 kts | 192° |
| 2026-05-08 19:09 | 44.61798 | 10.21255 | 35055 ft | 441 kts | 194° |
| 2026-05-08 19:10 | 44.55829 | 10.19500 | 35063 ft | 440 kts | 201° |
| 2026-05-08 19:10 | 44.50816 | 10.17421 | 35072 ft | 438 kts | 203° |
| 2026-05-08 19:11 | 44.45003 | 10.14978 | 35082 ft | 440 kts | 201° |
| 2026-05-08 19:11 | 44.39311 | 10.12904 | 34790 ft | 428 kts | 200° |
| 2026-05-08 19:11 | 44.36444 | 10.11937 | 34511 ft | 419 kts | 200° |
| 2026-05-08 19:12 | 44.33638 | 10.10993 | 33994 ft | 410 kts | 200° |
| 2026-05-08 19:12 | 44.31226 | 10.10175 | 33209 ft | 405 kts | 201° |
| 2026-05-08 19:12 | 44.29624 | 10.09623 | 32702 ft | 401 kts | 199° |
| 2026-05-08 19:12 | 44.27196 | 10.08783 | 31665 ft | 399 kts | 201° |
| 2026-05-08 19:13 | 44.25073 | 10.08142 | 31031 ft | 399 kts | 195° |
| 2026-05-08 19:13 | 44.22559 | 10.07854 | 30298 ft | 402 kts | 186° |
| 2026-05-08 19:13 | 44.21077 | 10.07915 | 29842 ft | 404 kts | 181° |
| 2026-05-08 19:13 | 44.18444 | 10.08742 | 28912 ft | 409 kts | 167° |
| 2026-05-08 19:14 | 44.15776 | 10.09862 | 28126 ft | 402 kts | 169° |
| 2026-05-08 19:14 | 44.13081 | 10.10776 | 27374 ft | 395 kts | 172° |
| 2026-05-08 19:14 | 44.10722 | 10.11519 | 26717 ft | 390 kts | 172° |
| 2026-05-08 19:14 | 44.08087 | 10.12328 | 25995 ft | 385 kts | 171° |
| 2026-05-08 19:15 | 44.05492 | 10.13144 | 25284 ft | 380 kts | 170° |
| 2026-05-08 19:15 | 44.02933 | 10.14006 | 24676 ft | 373 kts | 169° |
| 2026-05-08 19:15 | 44.00454 | 10.14820 | 24453 ft | 362 kts | 175° |
| 2026-05-08 19:15 | 43.97972 | 10.14802 | 23973 ft | 354 kts | 194° |
| 2026-05-08 19:16 | 43.95674 | 10.13725 | 23507 ft | 346 kts | 212° |
| 2026-05-08 19:16 | 43.93770 | 10.11748 | 22993 ft | 340 kts | 229° |
| 2026-05-08 19:16 | 43.92408 | 10.09119 | 22511 ft | 334 kts | 246° |
| 2026-05-08 19:16 | 43.91675 | 10.06094 | 22053 ft | 330 kts | 262° |
| 2026-05-08 19:17 | 43.91607 | 10.02934 | 21602 ft | 327 kts | 278° |
| 2026-05-08 19:17 | 43.92204 | 9.99909 | 21314 ft | 326 kts | 294° |
| 2026-05-08 19:17 | 43.93411 | 9.97242 | 21321 ft | 330 kts | 310° |
| 2026-05-08 19:17 | 43.95131 | 9.95134 | 21325 ft | 333 kts | 326° |
| 2026-05-08 19:18 | 43.97236 | 9.93764 | 21325 ft | 336 kts | 338° |
| 2026-05-08 19:18 | 43.99468 | 9.92763 | 21330 ft | 338 kts | 342° |
| 2026-05-08 19:18 | 44.01739 | 9.91905 | 21319 ft | 338 kts | 343° |
| 2026-05-08 19:18 | 44.04022 | 9.91112 | 21319 ft | 338 kts | 344° |
| 2026-05-08 19:19 | 44.06303 | 9.90328 | 21320 ft | 338 kts | 343° |
| 2026-05-08 19:19 | 44.08577 | 9.89709 | 21314 ft | 340 kts | 354° |
| 2026-05-08 19:19 | 44.10972 | 9.89950 | 21318 ft | 344 kts | 11° |
| 2026-05-08 19:19 | 44.13178 | 9.91166 | 21320 ft | 349 kts | 29° |
| 2026-05-08 19:20 | 44.15055 | 9.93314 | 21321 ft | 353 kts | 47° |
| 2026-05-08 19:20 | 44.16005 | 9.95166 | 21321 ft | 355 kts | 60° |
| 2026-05-08 19:20 | 44.16980 | 9.99552 | 21319 ft | 358 kts | 86° |
| 2026-05-08 19:20 | 44.16792 | 10.03001 | 21317 ft | 359 kts | 105° |
| 2026-05-08 19:21 | 44.15829 | 10.06186 | 21319 ft | 357 kts | 124° |
| 2026-05-08 19:21 | 44.14204 | 10.08772 | 21320 ft | 355 kts | 143° |
| 2026-05-08 19:21 | 44.12102 | 10.10513 | 21319 ft | 350 kts | 161° |
| 2026-05-08 19:21 | 44.09798 | 10.11631 | 21320 ft | 350 kts | 165° |
| 2026-05-08 19:22 | 44.07458 | 10.12564 | 21320 ft | 350 kts | 167° |
| 2026-05-08 19:22 | 44.05100 | 10.13403 | 21323 ft | 350 kts | 168° |
| 2026-05-08 19:22 | 44.02738 | 10.14213 | 21326 ft | 350 kts | 168° |
| 2026-05-08 19:22 | 44.00373 | 10.15033 | 21252 ft | 351 kts | 168° |
| 2026-05-08 19:23 | 43.98007 | 10.15865 | 20496 ft | 356 kts | 167° |
| 2026-05-08 19:23 | 43.95653 | 10.16674 | 20022 ft | 343 kts | 172° |
| 2026-05-08 19:23 | 43.93309 | 10.16942 | 19441 ft | 334 kts | 185° |
| 2026-05-08 19:23 | 43.91024 | 10.16520 | 18681 ft | 331 kts | 197° |
| 2026-05-08 19:24 | 43.88874 | 10.15432 | 17945 ft | 327 kts | 208° |
| 2026-05-08 19:24 | 43.86950 | 10.13773 | 17192 ft | 323 kts | 220° |
| 2026-05-08 19:24 | 43.85344 | 10.11657 | 16610 ft | 315 kts | 229° |
| 2026-05-08 19:24 | 43.83920 | 10.09391 | 16054 ft | 309 kts | 234° |
| 2026-05-08 19:25 | 43.82737 | 10.06931 | 15778 ft | 309 kts | 239° |
| 2026-05-08 19:25 | 43.81590 | 10.04377 | 15559 ft | 313 kts | 239° |
| 2026-05-08 19:25 | 43.80433 | 10.01825 | 15326 ft | 312 kts | 238° |
| 2026-05-08 19:25 | 43.79178 | 9.99379 | 15071 ft | 312 kts | 229° |
| 2026-05-08 19:26 | 43.77610 | 9.97310 | 14798 ft | 311 kts | 218° |
| 2026-05-08 19:26 | 43.75857 | 9.95578 | 14507 ft | 310 kts | 211° |
| 2026-05-08 19:26 | 43.73828 | 9.94648 | 14239 ft | 309 kts | 185° |
| 2026-05-08 19:26 | 43.71713 | 9.95018 | 13962 ft | 309 kts | 159° |
| 2026-05-08 19:27 | 43.69921 | 9.96612 | 13675 ft | 309 kts | 133° |
| 2026-05-08 19:27 | 43.68607 | 9.98906 | 13395 ft | 309 kts | 127° |
| 2026-05-08 19:27 | 43.67312 | 10.01318 | 13111 ft | 308 kts | 127° |
| 2026-05-08 19:27 | 43.66056 | 10.03663 | 12855 ft | 307 kts | 127° |
| 2026-05-08 19:28 | 43.64788 | 10.06026 | 12623 ft | 306 kts | 127° |
| 2026-05-08 19:28 | 43.63520 | 10.08380 | 12376 ft | 305 kts | 127° |
| 2026-05-08 19:28 | 43.62255 | 10.10720 | 12146 ft | 302 kts | 127° |
| 2026-05-08 19:28 | 43.61017 | 10.13009 | 11934 ft | 295 kts | 127° |
| 2026-05-08 19:29 | 43.59798 | 10.15263 | 11662 ft | 291 kts | 127° |
| 2026-05-08 19:29 | 43.58593 | 10.17489 | 11436 ft | 289 kts | 127° |
| 2026-05-08 19:29 | 43.57395 | 10.19698 | 11209 ft | 287 kts | 127° |
| 2026-05-08 19:29 | 43.56200 | 10.21903 | 10984 ft | 286 kts | 127° |
| 2026-05-08 19:30 | 43.55013 | 10.24098 | 10760 ft | 285 kts | 127° |
| 2026-05-08 19:30 | 43.53833 | 10.26280 | 10531 ft | 284 kts | 127° |
| 2026-05-08 19:30 | 43.52658 | 10.28448 | 10283 ft | 282 kts | 127° |
| 2026-05-08 19:30 | 43.51491 | 10.30595 | 10096 ft | 276 kts | 127° |
| 2026-05-08 19:31 | 43.50366 | 10.32680 | 9977 ft | 266 kts | 123° |
| 2026-05-08 19:31 | 43.49752 | 10.34991 | 9855 ft | 254 kts | 91° |
| 2026-05-08 19:31 | 43.50101 | 10.37290 | 9693 ft | 244 kts | 60° |
| 2026-05-08 19:31 | 43.51229 | 10.38978 | 9477 ft | 241 kts | 36° |
| 2026-05-08 19:32 | 43.52579 | 10.40356 | 9274 ft | 241 kts | 36° |
| 2026-05-08 19:32 | 43.53923 | 10.41729 | 9075 ft | 240 kts | 36° |
| 2026-05-08 19:32 | 43.55263 | 10.43102 | 8879 ft | 240 kts | 37° |
| 2026-05-08 19:32 | 43.56604 | 10.44487 | 8702 ft | 241 kts | 37° |
| 2026-05-08 19:33 | 43.57942 | 10.45871 | 8512 ft | 241 kts | 37° |
| 2026-05-08 19:33 | 43.59280 | 10.47251 | 8344 ft | 240 kts | 37° |
| 2026-05-08 19:33 | 43.60614 | 10.48628 | 8176 ft | 239 kts | 37° |
| 2026-05-08 19:33 | 43.61946 | 10.50003 | 8006 ft | 239 kts | 37° |
| 2026-05-08 19:34 | 43.63256 | 10.51354 | 7821 ft | 238 kts | 37° |
| 2026-05-08 19:34 | 43.64581 | 10.52723 | 7642 ft | 236 kts | 37° |
| 2026-05-08 19:34 | 43.65877 | 10.54061 | 7456 ft | 229 kts | 37° |
| 2026-05-08 19:34 | 43.67083 | 10.55308 | 7292 ft | 223 kts | 37° |
| 2026-05-08 19:35 | 43.68302 | 10.56572 | 7157 ft | 214 kts | 37° |
| 2026-05-08 19:35 | 43.68540 | 10.56819 | 7121 ft | 212 kts | 37° |
| 2026-05-08 19:36 | 43.69076 | 10.57377 | 7104 ft | 204 kts | 37° |
| 2026-05-08 19:37 | 43.70200 | 10.58544 | 6874 ft | 198 kts | 37° |
| 2026-05-08 19:37 | 43.71261 | 10.59643 | 6718 ft | 194 kts | 37° |
| 2026-05-08 19:37 | 43.72338 | 10.60759 | 6569 ft | 193 kts | 37° |
| 2026-05-08 19:37 | 43.73408 | 10.61872 | 6418 ft | 192 kts | 36° |
| 2026-05-08 19:38 | 43.74476 | 10.62982 | 6235 ft | 192 kts | 36° |
| 2026-05-08 19:38 | 43.75542 | 10.64090 | 6068 ft | 191 kts | 36° |
| 2026-05-08 19:38 | 43.76604 | 10.65195 | 5918 ft | 191 kts | 36° |
| 2026-05-08 19:38 | 43.77669 | 10.66290 | 5768 ft | 190 kts | 33° |
| 2026-05-08 19:39 | 43.78879 | 10.66948 | 5623 ft | 189 kts | 8° |
| 2026-05-08 19:39 | 43.80176 | 10.66844 | 5477 ft | 188 kts | 343° |
| 2026-05-08 19:39 | 43.81321 | 10.65994 | 5327 ft | 188 kts | 319° |
| 2026-05-08 19:39 | 43.82222 | 10.64686 | 5176 ft | 188 kts | 313° |
| 2026-05-08 19:40 | 43.83108 | 10.63364 | 5018 ft | 188 kts | 311° |
| 2026-05-08 19:40 | 43.83678 | 10.61777 | 4708 ft | 182 kts | 280° |
| 2026-05-08 19:40 | 43.83564 | 10.60102 | 4434 ft | 174 kts | 249° |
| 2026-05-08 19:40 | 43.82872 | 10.58760 | 4168 ft | 172 kts | 225° |
| 2026-05-08 19:41 | 43.82059 | 10.57550 | 3888 ft | 171 kts | 237° |
| 2026-05-08 19:41 | 43.81734 | 10.56000 | 3627 ft | 169 kts | 263° |
| 2026-05-08 19:41 | 43.81526 | 10.54395 | 3352 ft | 169 kts | 257° |
| 2026-05-08 19:41 | 43.81237 | 10.52822 | 3074 ft | 169 kts | 254° |
| 2026-05-08 19:42 | 43.80647 | 10.51452 | 2843 ft | 168 kts | 223° |
| 2026-05-08 19:42 | 43.79756 | 10.50414 | 2647 ft | 168 kts | 219° |
| 2026-05-08 19:42 | 43.78856 | 10.49390 | 2450 ft | 167 kts | 218° |
| 2026-05-08 19:42 | 43.77914 | 10.48465 | 2199 ft | 161 kts | 214° |
| 2026-05-08 19:43 | 43.77019 | 10.47632 | 1972 ft | 150 kts | 213° |
| 2026-05-08 19:43 | 43.76161 | 10.46842 | 1762 ft | 147 kts | 213° |
| 2026-05-08 19:43 | 43.75320 | 10.46069 | 1551 ft | 145 kts | 214° |
| 2026-05-08 19:43 | 43.74474 | 10.45333 | 1319 ft | 146 kts | 206° |
| 2026-05-08 19:44 | 43.73579 | 10.44691 | 1153 ft | 145 kts | 208° |
| 2026-05-08 19:44 | 43.72725 | 10.43939 | 900 ft | 146 kts | 216° |
| 2026-05-08 19:44 | 43.71925 | 10.43095 | 705 ft | 144 kts | 217° |
| 2026-05-08 19:44 | 43.71119 | 10.42267 | 513 ft | 144 kts | 218° |
| 2026-05-08 19:45 | 43.70315 | 10.41433 | 295 ft | 143 kts | 217° |
| 2026-05-08 19:45 | 43.69523 | 10.40611 | 112 ft | 143 kts | 217° |
| 2026-05-08 19:45 | 43.68747 | 10.39805 | 8 ft | 127 kts | 217° |
| 2026-05-08 19:45 | 43.68186 | 10.39224 | 9 ft | 74 kts | 217° |
| 2026-05-08 19:46 | 43.67911 | 10.38939 | 8 ft | 26 kts | 217° |
| 2026-05-08 19:46 | 43.67761 | 10.38787 | 10 ft | 46 kts | 216° |
| 2026-05-08 19:46 | 43.67551 | 10.38494 | 10 ft | 6 kts | 308° |
| 2026-05-08 19:47 | 43.67608 | 10.38389 | 10 ft | 17 kts | 307° |
| 2026-05-08 19:47 | 43.67685 | 10.38258 | 9 ft | 18 kts | 308° |
| 2026-05-08 19:47 | 43.67746 | 10.38208 | 11 ft | 8 kts | 19° |
| 2026-05-08 19:47 | 43.67787 | 10.38250 | 11 ft | 6 kts | 37° |